createdAt,value
2022-08-22T00:02:43.756Z,67.46
2022-08-22T00:02:48.148Z,64.86
2022-08-22T04:03:08.786Z,70.21
2022-08-22T04:05:55.857Z,70.20
2022-08-22T04:08:56.306Z,70.23
2022-08-22T04:11:48.223Z,70.29
2022-08-22T04:14:26.863Z,70.34
2022-08-22T04:17:02.122Z,70.33
2022-08-22T04:20:35.510Z,70.32
2022-08-22T04:23:37.103Z,70.31
2022-08-22T04:26:21.361Z,70.31
2022-08-22T04:29:03.336Z,70.33
2022-08-22T04:31:56.905Z,70.26
2022-08-22T04:34:38.228Z,70.29
2022-08-22T04:41:49.632Z,70.37
2022-08-22T04:44:29.263Z,70.41
2022-08-22T05:05:14.121Z,70.55
2022-08-22T05:07:49.333Z,70.68
2022-08-22T05:37:50.398Z,70.69
2022-08-22T05:40:25.671Z,70.63
2022-08-22T05:42:57.242Z,70.60
2022-08-22T05:45:28.193Z,70.51
2022-08-22T05:48:33.570Z,70.48
2022-08-22T05:55:32.893Z,70.50
2022-08-22T05:58:57.615Z,70.48
2022-08-22T06:01:50.166Z,70.45
2022-08-22T06:04:37.219Z,70.52
2022-08-22T06:07:24.363Z,70.52
2022-08-22T06:10:28.706Z,70.41
2022-08-22T06:13:12.752Z,70.37
2022-08-22T06:16:11.181Z,70.42
2022-08-22T06:18:44.108Z,70.36
2022-08-22T06:21:22.633Z,70.38
2022-08-22T06:24:00.217Z,70.47
2022-08-22T06:26:38.602Z,70.38
2022-08-22T06:29:12.382Z,70.37
2022-08-22T06:31:49.721Z,70.28
2022-08-22T06:34:28.231Z,70.20
2022-08-22T06:36:59.473Z,70.29
2022-08-22T06:39:32.392Z,70.20
2022-08-22T06:42:01.823Z,70.32
2022-08-22T06:44:38.518Z,70.38
2022-08-22T06:47:10.923Z,70.43
2022-08-22T06:49:43.512Z,70.36
2022-08-22T06:52:19.371Z,70.24
2022-08-22T06:54:52.205Z,70.10
2022-08-22T06:57:44.731Z,70.01
2022-08-22T07:00:17.210Z,69.95
2022-08-22T07:02:51.736Z,70.13
2022-08-22T07:05:26.316Z,70.05
2022-08-22T07:07:56.519Z,70.04
2022-08-22T07:10:26.120Z,70.14
2022-08-22T07:12:57.308Z,70.12
2022-08-22T07:15:38.005Z,70.24
2022-08-22T07:18:32.426Z,70.08
2022-08-22T07:21:05.382Z,70.08
2022-08-22T07:28:02.256Z,69.89
2022-08-22T07:35:20.050Z,69.79
2022-08-22T07:38:09.267Z,69.80
2022-08-22T07:40:56.778Z,69.65
2022-08-22T07:43:31.814Z,69.60
2022-08-22T07:46:34.765Z,69.73
2022-08-22T07:49:15.628Z,69.49
2022-08-22T07:51:49.668Z,69.67
2022-08-22T07:54:34.358Z,69.69
2022-08-22T07:57:32.819Z,69.58
2022-08-22T08:00:16.339Z,69.60
2022-08-22T08:02:59.568Z,69.59
2022-08-22T08:05:38.590Z,69.38
2022-08-22T08:08:27.930Z,69.53
2022-08-22T08:11:03.481Z,69.36
2022-08-22T08:13:44.602Z,69.57
2022-08-22T08:16:27.191Z,69.47
2022-08-22T08:19:06.803Z,69.65
2022-08-22T08:21:55.005Z,69.48
2022-08-22T08:24:43.342Z,69.43
2022-08-22T08:27:50.263Z,69.30
2022-08-22T08:30:35.286Z,69.47
2022-08-22T08:33:25.516Z,69.31
2022-08-22T08:36:07.600Z,69.38
2022-08-22T08:38:46.571Z,69.36
2022-08-22T08:41:49.012Z,69.33
2022-08-22T08:44:51.903Z,69.39
2022-08-22T08:48:10.989Z,69.46
2022-08-22T08:50:47.631Z,69.42
2022-08-22T08:53:39.368Z,69.38
2022-08-22T08:56:59.929Z,69.13
2022-08-22T09:00:16.394Z,69.20
2022-08-22T09:03:11.151Z,69.10
2022-08-22T09:06:12.427Z,69.10
2022-08-22T09:08:59.290Z,68.90
2022-08-22T09:12:06.776Z,68.72
2022-08-22T09:15:01.080Z,68.81
2022-08-22T09:18:18.588Z,68.77
2022-08-22T09:21:00.270Z,68.69
2022-08-22T09:24:01.616Z,68.68
2022-08-22T09:27:08.751Z,68.61
2022-08-22T09:29:51.435Z,68.61
2022-08-22T09:32:53.572Z,68.56
2022-08-22T09:35:35.216Z,68.57
2022-08-22T09:38:25.423Z,68.64
2022-08-22T09:41:20.449Z,68.47
2022-08-22T09:44:28.908Z,68.44
2022-08-22T09:47:11.248Z,68.36
2022-08-22T09:50:16.977Z,68.26
2022-08-22T09:53:01.979Z,68.28
2022-08-22T09:55:36.275Z,68.22
2022-08-22T09:58:37.647Z,68.18
2022-08-22T10:01:32.938Z,68.07
2022-08-22T10:04:20.880Z,68.03
2022-08-22T10:07:28.315Z,67.90
2022-08-22T10:10:21.524Z,67.83
2022-08-22T10:13:11.553Z,67.78
2022-08-22T10:16:30.505Z,67.72
2022-08-22T10:19:38.944Z,67.70
2022-08-22T10:22:10.757Z,67.74
2022-08-22T10:24:59.008Z,67.75
2022-08-22T10:28:10.647Z,67.67
2022-08-22T10:31:22.407Z,67.50
2022-08-22T10:34:20.597Z,66.88
2022-08-22T10:37:00.915Z,66.77
2022-08-22T10:39:50.063Z,66.72
2022-08-22T10:42:30.169Z,66.92
2022-08-22T10:45:05.083Z,66.81
2022-08-22T10:47:54.730Z,66.50
2022-08-22T10:50:49.396Z,66.66
2022-08-22T10:53:34.807Z,66.66
2022-08-22T10:56:10.571Z,66.79
2022-08-22T10:58:49.785Z,66.57
2022-08-22T11:01:38.170Z,66.65
2022-08-22T11:04:44.952Z,66.60
2022-08-22T11:08:00.071Z,66.12
2022-08-22T11:11:06.615Z,66.34
2022-08-22T11:13:44.520Z,66.39
2022-08-22T11:16:18.320Z,66.38
2022-08-22T11:19:15.945Z,66.15
2022-08-22T11:21:58.308Z,66.09
2022-08-22T11:24:56.254Z,65.97
2022-08-22T11:27:40.790Z,66.25
2022-08-22T11:30:29.586Z,66.15
2022-08-22T11:33:47.150Z,66.12
2022-08-22T11:36:37.289Z,65.75
2022-08-22T11:39:18.532Z,65.96
2022-08-22T11:41:52.405Z,65.84
2022-08-22T11:44:50.786Z,65.59
2022-08-22T11:47:28.066Z,65.37
2022-08-22T11:50:03.624Z,65.11
2022-08-22T11:53:04.342Z,65.22
2022-08-22T11:55:58.749Z,65.34
2022-08-22T11:58:46.591Z,64.72
2022-08-22T12:01:23.061Z,64.83
2022-08-22T12:04:09.903Z,65.18
2022-08-22T12:07:01.546Z,65.25
2022-08-22T12:09:55.581Z,65.17
2022-08-22T12:12:29.320Z,64.49
2022-08-22T12:15:02.128Z,64.38
2022-08-22T12:18:09.540Z,64.66
2022-08-22T12:21:15.630Z,64.45
2022-08-22T12:24:06.115Z,64.49
2022-08-22T12:26:55.412Z,64.44
2022-08-22T12:29:48.051Z,64.49
2022-08-22T12:32:34.246Z,64.19
2022-08-22T12:35:43.616Z,64.16
2022-08-22T12:38:49.568Z,64.16
2022-08-22T12:42:04.111Z,64.07
2022-08-22T12:44:52.252Z,63.99
2022-08-22T12:48:03.497Z,64.03
2022-08-22T12:51:02.526Z,63.89
2022-08-22T12:54:12.062Z,63.93
2022-08-22T12:56:50.768Z,63.75
2022-08-22T12:59:25.815Z,63.80
2022-08-22T13:02:00.453Z,63.82
2022-08-22T13:04:34.988Z,63.69
2022-08-22T13:07:18.485Z,63.71
2022-08-22T13:09:50.190Z,63.40
2022-08-22T13:12:34.090Z,63.17
2022-08-22T13:15:28.809Z,63.10
2022-08-22T13:18:18.857Z,63.12
2022-08-22T13:20:53.427Z,63.24
2022-08-22T13:23:45.516Z,63.24
2022-08-22T13:26:32.090Z,63.38
2022-08-22T13:29:25.142Z,63.03
2022-08-22T13:32:04.469Z,63.10
2022-08-22T13:34:49.825Z,63.21
2022-08-22T13:37:24.513Z,62.98
2022-08-22T13:39:59.469Z,62.92
2022-08-22T13:42:31.609Z,63.02
2022-08-22T13:45:06.147Z,63.00
2022-08-22T13:47:39.732Z,62.95
2022-08-22T13:50:15.068Z,62.99
2022-08-22T13:52:55.351Z,62.88
2022-08-22T13:55:29.996Z,62.78
2022-08-22T13:58:22.638Z,62.59
2022-08-22T14:01:15.303Z,62.66
2022-08-22T14:04:01.595Z,62.62
2022-08-22T14:06:48.261Z,62.52
2022-08-22T14:09:42.871Z,62.62
2022-08-22T14:12:24.320Z,62.44
2022-08-22T14:15:07.074Z,62.71
2022-08-22T14:17:48.908Z,62.78
2022-08-22T14:20:32.245Z,62.47
2022-08-22T14:23:24.129Z,62.38
2022-08-22T14:25:57.432Z,62.20
2022-08-22T14:28:31.993Z,62.12
2022-08-22T14:31:13.721Z,62.11
2022-08-22T14:33:57.571Z,62.27
2022-08-22T14:36:30.239Z,62.21
2022-08-22T14:39:11.402Z,62.33
2022-08-22T14:41:56.211Z,62.40
2022-08-22T14:44:42.297Z,62.16
2022-08-22T14:47:40.358Z,62.05
2022-08-22T14:50:37.183Z,62.06
2022-08-22T14:53:24.963Z,62.23
2022-08-22T14:56:05.216Z,62.24
2022-08-22T14:58:49.987Z,62.29
2022-08-22T15:01:23.207Z,62.36
2022-08-22T15:04:05.746Z,62.36
2022-08-22T15:06:48.179Z,62.30
2022-08-22T15:09:41.499Z,62.38
2022-08-22T15:12:31.909Z,62.43
2022-08-22T15:15:06.270Z,62.41
2022-08-22T15:18:01.174Z,62.49
2022-08-22T15:20:36.303Z,62.50
2022-08-22T15:23:17.049Z,62.40
2022-08-22T15:25:56.480Z,62.08
2022-08-22T15:28:26.135Z,61.86
2022-08-22T15:30:58.747Z,62.04
2022-08-22T15:33:45.448Z,62.07
2022-08-22T15:36:22.628Z,61.88
2022-08-22T15:39:30.713Z,61.98
2022-08-22T15:42:02.871Z,61.80
2022-08-22T15:44:44.334Z,61.79
2022-08-22T15:47:27.682Z,61.88
2022-08-22T15:50:01.901Z,61.97
2022-08-22T15:52:59.153Z,61.89
2022-08-22T15:55:36.942Z,61.89
2022-08-22T15:58:22.580Z,61.92
2022-08-22T16:01:19.777Z,61.88
2022-08-22T16:04:14.517Z,61.86
2022-08-22T16:06:49.603Z,61.84
2022-08-22T16:09:50.594Z,61.75
2022-08-22T16:12:33.822Z,61.83
2022-08-22T16:15:05.902Z,61.88
2022-08-22T16:17:44.304Z,61.91
2022-08-22T16:20:20.199Z,62.07
2022-08-22T16:22:57.691Z,62.05
2022-08-22T16:25:45.671Z,61.93
2022-08-22T16:28:57.276Z,61.94
2022-08-22T16:31:57.029Z,62.02
2022-08-22T16:34:38.318Z,61.83
2022-08-22T16:37:18.463Z,61.95
2022-08-22T16:39:59.295Z,61.84
2022-08-22T16:42:58.143Z,61.90
2022-08-22T16:45:36.959Z,61.82
2022-08-22T16:48:32.794Z,61.83
2022-08-22T16:51:09.459Z,61.72
2022-08-22T16:53:38.712Z,61.81
2022-08-22T16:56:31.806Z,61.70
2022-08-22T16:59:22.597Z,61.84
2022-08-22T17:02:10.567Z,61.81
2022-08-22T17:05:03.615Z,61.84
2022-08-22T17:07:55.097Z,61.84
2022-08-22T17:10:37.229Z,61.87
2022-08-22T17:13:32.877Z,61.86
2022-08-22T17:16:08.321Z,62.02
2022-08-22T17:18:52.671Z,61.89
2022-08-22T17:21:51.855Z,61.91
2022-08-22T17:24:52.214Z,61.91
2022-08-22T17:27:38.846Z,62.01
2022-08-22T17:30:13.734Z,62.10
2022-08-22T17:33:05.235Z,61.95
2022-08-22T17:35:40.585Z,62.13
2022-08-22T17:38:33.758Z,62.00
2022-08-22T17:41:40.947Z,62.10
2022-08-22T17:44:23.333Z,62.18
2022-08-22T17:47:08.150Z,62.18
2022-08-22T17:49:45.267Z,62.08
2022-08-22T17:52:40.173Z,62.13
2022-08-22T17:55:15.929Z,62.16
2022-08-22T17:57:56.626Z,62.19
2022-08-22T18:00:40.048Z,62.21
2022-08-22T18:03:25.851Z,62.27
2022-08-22T18:06:24.334Z,62.27
2022-08-22T18:09:17.800Z,62.24
2022-08-22T18:11:52.597Z,62.34
2022-08-22T18:14:24.917Z,62.37
2022-08-22T18:16:56.511Z,62.44
2022-08-22T18:19:58.662Z,62.35
2022-08-22T18:22:41.815Z,62.51
2022-08-22T18:25:20.055Z,62.45
2022-08-22T18:27:56.431Z,62.52
2022-08-22T18:30:53.758Z,62.46
2022-08-22T18:33:35.446Z,62.56
2022-08-22T18:36:18.763Z,62.50
2022-08-22T18:38:54.954Z,62.53
2022-08-22T18:41:39.299Z,62.55
2022-08-22T18:44:21.583Z,62.54
2022-08-22T18:46:53.243Z,62.70
2022-08-22T18:49:24.698Z,62.55
2022-08-22T18:52:06.319Z,62.64
2022-08-22T18:55:11.360Z,62.59
2022-08-22T18:58:06.543Z,62.62
2022-08-22T19:00:47.525Z,62.59
2022-08-22T19:03:48.662Z,62.60
2022-08-22T19:06:45.001Z,62.66
2022-08-22T19:09:38.251Z,62.55
2022-08-22T19:12:15.961Z,62.69
2022-08-22T19:15:24.221Z,62.80
2022-08-22T19:18:34.873Z,62.86
2022-08-22T19:21:41.506Z,62.81
2022-08-22T19:24:57.191Z,62.95
2022-08-22T19:27:31.111Z,62.98
2022-08-22T19:30:26.957Z,62.94
2022-08-22T19:32:59.577Z,63.06
2022-08-22T19:40:45.869Z,63.15
2022-08-22T19:43:31.454Z,63.18
2022-08-22T19:46:07.068Z,63.19
2022-08-22T19:48:50.625Z,63.09
2022-08-22T19:51:20.023Z,63.24
2022-08-22T19:54:21.066Z,63.23
2022-08-22T19:57:10.308Z,63.34
2022-08-22T20:00:01.213Z,63.32
2022-08-22T20:02:57.153Z,63.15
2022-08-22T20:05:44.908Z,63.18
2022-08-22T20:08:59.375Z,63.19
2022-08-22T20:11:51.176Z,63.29
2022-08-22T20:14:40.246Z,63.42
2022-08-22T20:17:28.003Z,63.44
2022-08-22T20:22:57.895Z,63.42
2022-08-22T20:25:42.086Z,63.50
2022-08-22T20:28:30.308Z,63.45
2022-08-22T20:31:02.464Z,63.36
2022-08-22T20:33:42.318Z,63.50
2022-08-22T20:36:27.647Z,63.55
2022-08-22T20:39:11.245Z,63.56
2022-08-22T20:41:44.043Z,63.60
2022-08-22T20:44:31.689Z,63.53
2022-08-22T20:47:11.488Z,63.65
2022-08-22T20:49:51.133Z,63.70
2022-08-22T20:52:22.911Z,63.71
2022-08-22T20:55:19.628Z,63.77
2022-08-22T20:57:59.654Z,63.64
2022-08-22T21:00:46.102Z,63.68
2022-08-22T21:03:41.800Z,63.86
2022-08-22T21:06:15.941Z,63.86
2022-08-22T21:08:47.995Z,63.83
2022-08-22T21:11:41.687Z,63.87
2022-08-22T21:14:26.642Z,63.82
2022-08-22T21:16:56.441Z,63.83
2022-08-22T21:19:30.881Z,63.89
2022-08-22T21:22:18.372Z,63.97
2022-08-22T21:24:48.351Z,64.00
2022-08-22T21:27:27.113Z,64.03
2022-08-22T21:29:58.578Z,64.10
2022-08-22T21:32:34.998Z,64.04
2022-08-22T21:35:07.891Z,64.14
2022-08-22T21:37:40.875Z,64.08
2022-08-22T21:40:20.552Z,64.27
2022-08-22T21:43:09.859Z,64.16
2022-08-22T21:45:39.768Z,64.23
2022-08-22T21:48:39.573Z,64.29
2022-08-22T21:51:29.159Z,64.32
2022-08-22T21:54:26.208Z,64.33
2022-08-22T21:57:17.685Z,64.37
2022-08-22T21:59:59.519Z,64.43
2022-08-22T22:02:31.126Z,64.50
2022-08-22T22:05:02.803Z,64.47
2022-08-22T22:07:32.408Z,64.50
2022-08-22T22:10:02.100Z,64.58
2022-08-22T22:12:32.187Z,64.61
2022-08-22T22:15:02.171Z,64.67
2022-08-22T22:17:31.539Z,64.76
2022-08-22T22:20:01.025Z,64.70
2022-08-22T22:22:31.098Z,64.73
2022-08-22T22:25:00.772Z,64.75
2022-08-22T22:27:30.191Z,64.88
2022-08-22T22:30:00.152Z,64.97
2022-08-22T22:32:29.815Z,64.93
2022-08-22T22:34:59.223Z,65.11
2022-08-22T22:37:29.633Z,65.10
2022-08-22T22:40:00.390Z,65.19
2022-08-22T22:42:37.891Z,65.05
2022-08-22T22:45:07.777Z,65.18
2022-08-22T22:47:37.517Z,65.24
2022-08-22T22:50:07.900Z,65.30
2022-08-22T22:52:45.815Z,65.20
2022-08-22T22:55:24.186Z,65.39
2022-08-22T22:57:58.973Z,65.36
